Pagina principală
METAR-TAF:

METAR-TAF

Aeroporturi :

Monticello Municipal Airport/Ellis Field

Monticello, Arkansas, Statele Unite ale Americii

Latitudine: 33-38-18N, longitudine: 091-45-04W, elevație: 82 m

Observații meteo curente

Raportul a fost făcut în urmă cu 53 de minute, la 21:53 UTC
Vânt 7 kt de la Sud/Sud-est
Temperatură 34°C
Umiditate 47%
Presiune 1015 hPa
Vizibilitate: 16.1 km
Cer senin

METAR: KLLQ 222153Z AUTO 15007KT 10SM CLR 34/21 A2997 RMK AO2 SLP145 T03440211

Ora: 17:46 (22:46 UTC)

Prognoză

Raportul a fost făcut în urmă cu 5 ore și 16 de minute, la 17:30 UTC
Prognoză valabilă de la 22 ora 18 UTC la 23 ora 18 UTC
Vânt 4 kt din direcții variabile
Vizibilitate: 10 km
Cer senin
De la 23 ora 0100 UTC
Vânt 3 kt de la Sud
Vizibilitate: 10 km
Nori împrăștiați la o înălțime de 25000 picior

TAF: KLLQ 221730Z 2218/2318 VRB04KT P6SM SKC FM230100 19003KT P6SM SCT250

Observații și prognoze meteo pentru peste 4.000 de aeroporturi (rapoarte METAR și TAF).

Stațiile disponibile sunt reprezentate pe hartă prin puncte galbene și roșii.

Țineți indicatorul mouse-ului pe punctul dorit pentru a vedea denumirea stației.

Apoi, faceți clic pentru a vedea observațiile și prognozele meteorologice.

Pentru a schimba harta: Pentru mărire, faceți clic pe butoanele verzi cu cruce neagră; pentru micșorare, pe butonul verde cu o liniuță; pentru hărți învecinate, pe săgețile verzi.


METAR-TAF: